Agartala Airport
VEAT : now visible

Airfield :











YOU CAN JOIN US ON...

 
LOGIN :

Register | Disclaimer

   EN    FR    IT 

 









Legend :    VFR   Marginal VFR   IFR   Intensive IFR   Very Intensive IFR
Visi :
Ceiling :
>= 8 km
>= 3000ft
5 to 8 km
1000 to 3000 ft
1500m to 5 km
500 to 1000 ft
800 to 1500m
200 to 500 ft
< 800m
< 200 ft
Symbols :   Thunderstorms  Fog  Heavy snow  Heavy precipitations  Wind > 20 kt






- Airport Elevation : 46 ft
- IATA code : IXA


VEAT - Agartala

CURRENT METAR :
  • 180600Z 00000KT 5000 HZ SCT020 32/25 Q1013 NOSIG

EXPIRED METARs :
  • 180530Z 00000KT 5000 HZ SCT020 32/24 Q1014 NOSIG
  • 180500Z 06003KT 5000 HZ SCT020 32/24 Q1014 NOSIG
  • 180430Z 00000KT 5000 HZ SCT020 31/25 Q1015 NOSIG
  • 180400Z 06004KT 5000 HZ SCT020 31/25 Q1015 NOSIG
  • 180330Z 04003KT 4500 HZ SCT020 30/24 Q1016 BECMG 5000 HZ

TAF TAF VEAT
Valid from the 18 at 06:00 until the 18 at 15:00 UTC


180500Z 1806/1815 00000KT 5000 HZ FEW018 SCT025



MET'MAP, your aeronautical weather chart ! - Copyright ORBIFLY December 2007 - Disclaimer

ORBIFLY MET'MAP TEAM :

Programming & Development : Alexandra Zaïnal
Concept & Development : Baudouin d'Aumeries
Co-Development & Prog : Marc-Olivier Méhu
Technical & hardware support : Manuel Goepfert

Contact : metmap@orbifly.com




SOURCES & CREDITS :

   NOAA       Earth
Advisory